createdAt,value
2019-01-29T00:02:14.917Z,14.13
2019-01-29T00:04:43.312Z,15.67
2019-01-29T00:07:11.737Z,9.83
2019-01-29T00:09:40.131Z,11.53
2019-01-29T00:12:08.533Z,10.53
2019-01-29T00:14:37.224Z,10.63
2019-01-29T00:17:05.625Z,10.37
2019-01-29T00:19:34.023Z,11.63
2019-01-29T00:22:02.450Z,12.30
2019-01-29T00:24:30.841Z,13.20
2019-01-29T00:26:59.236Z,14.37
2019-01-29T00:29:27.656Z,12.33
2019-01-29T00:31:56.108Z,9.03
2019-01-29T00:34:24.549Z,12.67
2019-01-29T00:36:52.944Z,13.27
2019-01-29T00:39:21.445Z,13.33
2019-01-29T00:41:49.852Z,11.67
2019-01-29T00:44:18.244Z,9.60
2019-01-29T00:46:46.688Z,11.90
2019-01-29T00:49:15.257Z,9.13
2019-01-29T00:51:43.648Z,12.57
2019-01-29T00:54:12.142Z,14.17
2019-01-29T00:56:40.538Z,14.70
2019-01-29T00:59:08.935Z,9.53
2019-01-29T01:01:37.387Z,13.07
2019-01-29T01:04:06.011Z,12.53
2019-01-29T01:06:34.403Z,13.30
2019-01-29T01:09:04.605Z,10.13
2019-01-29T01:11:32.998Z,11.07
2019-01-29T01:14:01.399Z,13.57
2019-01-29T01:16:30.058Z,13.90
2019-01-29T01:18:58.444Z,12.63
2019-01-29T01:21:26.845Z,13.00
2019-01-29T01:23:55.442Z,10.27
2019-01-29T01:26:23.836Z,11.13
2019-01-29T01:28:52.229Z,14.90
2019-01-29T01:31:20.651Z,14.17
2019-01-29T01:33:49.045Z,11.27
2019-01-29T01:36:17.456Z,15.10
2019-01-29T01:38:45.885Z,11.57
2019-01-29T01:41:14.285Z,11.07
2019-01-29T01:43:42.685Z,12.70
2019-01-29T01:46:11.377Z,10.63
2019-01-29T01:48:39.778Z,12.10
2019-01-29T01:51:08.172Z,12.10
2019-01-29T01:53:36.608Z,12.03
2019-01-29T01:56:05.008Z,11.23
2019-01-29T01:58:33.406Z,13.93
2019-01-29T02:01:01.823Z,16.07
2019-01-29T02:03:30.217Z,16.60
2019-01-29T02:05:58.725Z,13.80
2019-01-29T02:08:27.121Z,13.13
2019-01-29T02:10:55.537Z,11.07
2019-01-29T02:13:23.974Z,13.03
2019-01-29T02:15:52.369Z,11.90
2019-01-29T02:18:20.785Z,13.17
2019-01-29T02:20:49.394Z,10.80
2019-01-29T02:23:17.796Z,15.83
2019-01-29T02:25:46.192Z,13.43
2019-01-29T02:28:14.893Z,10.10
2019-01-29T02:30:43.282Z,13.10
2019-01-29T02:33:11.681Z,14.60
2019-01-29T02:35:40.443Z,8.50
2019-01-29T02:38:08.901Z,11.90
2019-01-29T02:40:37.296Z,14.10
2019-01-29T02:43:05.796Z,12.67
2019-01-29T02:45:34.188Z,14.20
2019-01-29T02:48:02.582Z,15.90
2019-01-29T02:50:30.997Z,15.67
2019-01-29T02:52:59.389Z,13.53
2019-01-29T02:55:27.807Z,14.97
2019-01-29T02:57:56.193Z,12.13
2019-01-29T03:00:28.206Z,13.33
2019-01-29T03:02:56.604Z,13.47
2019-01-29T03:05:25.233Z,13.93
2019-01-29T03:07:53.718Z,18.70
2019-01-29T03:10:24.149Z,13.87
2019-01-29T03:12:52.805Z,13.17
2019-01-29T03:15:24.611Z,12.97
2019-01-29T03:17:53.079Z,15.40
2019-01-29T03:20:21.494Z,12.80
2019-01-29T03:22:50.075Z,16.30
2019-01-29T03:25:18.532Z,12.90
2019-01-29T03:27:47.018Z,8.97
2019-01-29T03:30:18.174Z,10.83
2019-01-29T03:32:46.574Z,9.90
2019-01-29T03:35:15.436Z,8.97
2019-01-29T03:37:44.004Z,7.77
2019-01-29T03:40:15.146Z,10.27
2019-01-29T03:42:43.557Z,9.97
2019-01-29T03:45:14.788Z,9.00
2019-01-29T03:47:43.341Z,9.60
2019-01-29T03:50:17.276Z,12.00
2019-01-29T03:52:46.198Z,10.80
2019-01-29T03:55:14.646Z,11.23
2019-01-29T03:57:43.099Z,13.13
2019-01-29T04:00:16.960Z,12.17
2019-01-29T04:02:45.628Z,13.70
2019-01-29T04:05:14.089Z,14.67
2019-01-29T04:07:42.483Z,16.97
2019-01-29T04:10:16.002Z,13.40
2019-01-29T04:12:45.196Z,11.33
2019-01-29T04:15:18.998Z,11.07
2019-01-29T04:17:47.819Z,12.80
2019-01-29T04:20:18.857Z,10.93
2019-01-29T04:22:48.010Z,11.07
2019-01-29T04:25:16.568Z,12.13
2019-01-29T04:27:44.954Z,10.50
2019-01-29T04:30:16.428Z,9.87
2019-01-29T04:32:44.840Z,11.40
2019-01-29T04:35:13.480Z,12.00
2019-01-29T04:37:41.922Z,12.23
2019-01-29T04:40:15.477Z,10.27
2019-01-29T04:42:43.948Z,11.60
2019-01-29T04:45:14.086Z,11.83
2019-01-29T04:47:42.676Z,13.90
2019-01-29T04:50:16.317Z,12.60
2019-01-29T04:52:45.069Z,13.73
2019-01-29T04:55:15.872Z,12.13
2019-01-29T04:57:44.306Z,13.97
2019-01-29T05:00:15.741Z,12.60
2019-01-29T05:02:44.148Z,13.23
2019-01-29T05:05:13.100Z,14.00
2019-01-29T05:07:41.600Z,11.10
2019-01-29T05:10:15.384Z,16.87
2019-01-29T05:12:43.944Z,19.37
2019-01-29T05:15:15.821Z,16.80
2019-01-29T05:17:44.306Z,24.47
2019-01-29T05:20:15.429Z,29.30
2019-01-29T05:22:43.845Z,26.13
2019-01-29T05:25:12.716Z,29.27
2019-01-29T05:27:41.137Z,27.70
2019-01-29T05:30:20.456Z,26.73
2019-01-29T05:32:47.691Z,26.60
2019-01-29T05:35:16.231Z,27.90
2019-01-29T05:37:44.652Z,29.07
2019-01-29T05:40:15.680Z,27.40
2019-01-29T05:42:44.326Z,32.23
2019-01-29T05:45:15.161Z,27.83
2019-01-29T05:47:43.563Z,31.77
2019-01-29T05:50:14.090Z,32.57
2019-01-29T05:52:42.589Z,27.00
2019-01-29T05:55:12.944Z,29.23
2019-01-29T05:57:41.537Z,30.57
2019-01-29T06:00:16.255Z,26.27
2019-01-29T06:02:44.912Z,31.43
2019-01-29T06:05:13.773Z,26.07
2019-01-29T06:07:42.177Z,26.13
2019-01-29T06:10:13.780Z,32.00
2019-01-29T06:12:42.212Z,28.67
2019-01-29T06:15:14.024Z,24.63
2019-01-29T06:17:42.431Z,24.30
2019-01-29T06:20:13.897Z,23.50
2019-01-29T06:22:42.296Z,24.57
2019-01-29T06:25:10.775Z,19.87
2019-01-29T06:27:39.262Z,18.57
2019-01-29T06:30:16.103Z,18.27
2019-01-29T06:32:44.594Z,16.47
2019-01-29T06:35:15.036Z,18.03
2019-01-29T06:37:43.429Z,21.43
2019-01-29T06:40:15.007Z,17.83
2019-01-29T06:42:43.404Z,16.77
2019-01-29T06:45:17.533Z,16.20
2019-01-29T06:47:46.133Z,17.27
2019-01-29T06:50:18.064Z,20.83
2019-01-29T06:52:46.460Z,22.50
2019-01-29T06:55:17.527Z,16.67
2019-01-29T06:57:54.545Z,17.23
2019-01-29T07:00:18.623Z,23.10
2019-01-29T07:02:47.110Z,22.33
2019-01-29T07:05:15.582Z,17.73
2019-01-29T07:07:43.981Z,21.50
2019-01-29T07:10:18.311Z,16.57
2019-01-29T07:12:46.699Z,20.67
2019-01-29T07:15:24.893Z,18.63
2019-01-29T07:17:53.295Z,17.87
2019-01-29T07:20:21.692Z,19.10
2019-01-29T07:22:50.117Z,15.27
2019-01-29T07:25:18.509Z,15.70
2019-01-29T07:27:46.912Z,17.47
2019-01-29T07:30:15.622Z,15.40
2019-01-29T07:32:44.016Z,17.23
2019-01-29T07:35:12.418Z,16.87
2019-01-29T07:37:41.144Z,14.90
2019-01-29T07:40:10.661Z,18.20
2019-01-29T07:42:39.067Z,15.53
2019-01-29T07:45:10.559Z,14.70
2019-01-29T07:47:38.976Z,17.40
2019-01-29T07:50:09.864Z,17.87
2019-01-29T07:52:38.359Z,16.40
2019-01-29T07:55:09.813Z,16.65
2019-01-29T07:57:38.305Z,19.27
2019-01-29T08:00:10.566Z,17.00
2019-01-29T08:02:38.963Z,13.43
2019-01-29T08:05:10.399Z,15.20
2019-01-29T08:07:38.792Z,16.67
2019-01-29T08:10:10.997Z,18.35
2019-01-29T08:12:39.432Z,15.47
2019-01-29T08:15:11.040Z,12.27
2019-01-29T08:17:39.440Z,12.43
2019-01-29T08:20:11.068Z,13.77
2019-01-29T08:22:39.473Z,8.57
2019-01-29T08:25:10.108Z,12.27
2019-01-29T08:27:38.915Z,9.23
2019-01-29T08:30:10.558Z,8.80
2019-01-29T08:32:38.949Z,14.60
2019-01-29T08:35:10.463Z,10.73
2019-01-29T08:37:38.861Z,12.00
2019-01-29T08:40:10.137Z,10.15
2019-01-29T08:42:38.559Z,8.90
2019-01-29T08:45:17.929Z,8.40
2019-01-29T08:47:46.418Z,8.33
2019-01-29T08:50:23.069Z,12.13
2019-01-29T08:52:51.465Z,9.07
2019-01-29T08:55:20.403Z,9.67
2019-01-29T08:57:48.822Z,9.80
2019-01-29T09:00:18.919Z,7.07
2019-01-29T09:02:47.945Z,8.53
2019-01-29T09:05:16.894Z,10.13
2019-01-29T09:07:45.294Z,11.97
2019-01-29T09:10:20.934Z,9.23
2019-01-29T09:12:49.350Z,9.77
2019-01-29T09:15:20.413Z,6.43
2019-01-29T09:17:55.616Z,8.83
2019-01-29T09:20:24.114Z,10.20
2019-01-29T09:22:52.573Z,11.57
2019-01-29T09:25:22.818Z,9.13
2019-01-29T09:27:51.353Z,10.27
2019-01-29T09:30:20.581Z,8.53
2019-01-29T09:32:49.154Z,8.37
2019-01-29T09:35:17.662Z,8.97
2019-01-29T09:37:46.082Z,9.57
2019-01-29T09:40:22.085Z,9.57
2019-01-29T09:42:50.651Z,10.23
2019-01-29T09:45:20.412Z,9.83
2019-01-29T09:47:48.793Z,7.43
2019-01-29T09:50:23.747Z,9.33
2019-01-29T09:52:53.112Z,9.33
2019-01-29T09:55:29.576Z,9.93
2019-01-29T09:57:55.257Z,8.73
2019-01-29T10:00:34.885Z,6.93
2019-01-29T10:03:04.087Z,7.27
2019-01-29T10:05:32.515Z,6.07
2019-01-29T10:08:00.917Z,7.63
2019-01-29T10:10:29.480Z,8.40
2019-01-29T10:12:57.910Z,6.63
2019-01-29T10:15:31.480Z,7.67
2019-01-29T10:17:59.892Z,10.90
2019-01-29T10:20:28.616Z,8.83
2019-01-29T10:22:57.013Z,9.57
2019-01-29T10:25:25.489Z,9.00
2019-01-29T10:27:53.914Z,7.03
2019-01-29T10:30:24.877Z,8.47
2019-01-29T10:32:53.415Z,10.77
2019-01-29T10:35:24.082Z,8.80
2019-01-29T10:37:52.683Z,10.10
2019-01-29T10:40:23.519Z,7.37
2019-01-29T10:42:51.950Z,7.30
2019-01-29T10:45:21.999Z,10.07
2019-01-29T10:47:50.396Z,7.97
2019-01-29T10:50:21.254Z,8.67
2019-01-29T10:52:50.469Z,8.07
2019-01-29T10:55:19.053Z,8.47
2019-01-29T10:57:47.675Z,7.43
2019-01-29T11:00:22.280Z,8.57
2019-01-29T11:02:50.776Z,8.37
2019-01-29T11:05:20.629Z,10.40
2019-01-29T11:07:49.180Z,4.53
2019-01-29T11:10:19.127Z,5.33
2019-01-29T11:12:47.693Z,5.87
2019-01-29T11:15:28.168Z,3.60
2019-01-29T11:17:57.859Z,4.03
2019-01-29T11:20:26.318Z,5.23
2019-01-29T11:22:54.919Z,4.13
2019-01-29T11:25:28.906Z,5.50
2019-01-29T11:27:57.369Z,4.67
2019-01-29T11:30:27.931Z,4.97
2019-01-29T11:32:56.342Z,5.70
2019-01-29T11:35:24.810Z,4.40
2019-01-29T11:37:53.196Z,6.03
2019-01-29T11:40:29.906Z,7.60
2019-01-29T11:42:58.767Z,5.00
2019-01-29T11:45:35.972Z,6.23
2019-01-29T11:48:04.537Z,5.50
2019-01-29T11:50:32.932Z,3.60
2019-01-29T11:53:01.384Z,3.03
2019-01-29T11:55:29.800Z,8.27
2019-01-29T11:57:58.755Z,5.33
2019-01-29T12:00:34.021Z,6.67
2019-01-29T12:03:02.420Z,6.77
2019-01-29T12:05:30.866Z,6.27
2019-01-29T12:07:59.249Z,4.47
2019-01-29T12:10:27.683Z,5.77
2019-01-29T12:12:56.075Z,5.70
2019-01-29T12:15:24.669Z,5.33
2019-01-29T12:17:53.061Z,3.50
2019-01-29T12:20:21.552Z,3.23
2019-01-29T12:22:50.238Z,4.17
2019-01-29T12:25:18.825Z,5.43
2019-01-29T12:27:47.217Z,5.03
2019-01-29T12:30:21.617Z,4.67
2019-01-29T12:32:50.838Z,4.27
2019-01-29T12:35:19.234Z,6.07
2019-01-29T12:37:47.882Z,8.60
2019-01-29T12:40:16.329Z,4.90
2019-01-29T12:42:44.721Z,4.97
2019-01-29T12:45:15.872Z,6.37
2019-01-29T12:47:44.612Z,3.90
2019-01-29T12:50:19.075Z,5.77
2019-01-29T12:52:49.141Z,7.00
2019-01-29T12:55:17.555Z,6.57
2019-01-29T12:57:45.957Z,7.07
2019-01-29T13:00:19.631Z,7.83
2019-01-29T13:02:48.025Z,3.37
2019-01-29T13:05:16.610Z,6.93
2019-01-29T13:07:45.030Z,4.30
2019-01-29T13:10:21.551Z,5.93
2019-01-29T13:12:49.996Z,3.83
2019-01-29T13:15:22.780Z,5.00
2019-01-29T13:17:51.180Z,5.43
2019-01-29T13:20:19.573Z,5.30
2019-01-29T13:22:48.007Z,5.83
2019-01-29T13:25:17.150Z,4.33
2019-01-29T13:27:45.703Z,7.47
2019-01-29T13:30:35.315Z,3.83
2019-01-29T13:33:06.588Z,3.80
2019-01-29T13:35:36.440Z,4.53
2019-01-29T13:38:06.174Z,5.90
2019-01-29T13:40:34.636Z,6.17
2019-01-29T13:43:03.069Z,5.30
2019-01-29T13:45:31.463Z,4.67
2019-01-29T13:47:59.923Z,5.70
2019-01-29T13:50:43.623Z,4.53
2019-01-29T13:53:14.829Z,4.73
2019-01-29T13:55:43.361Z,5.60
2019-01-29T13:58:11.940Z,3.77
2019-01-29T14:00:41.269Z,7.67
2019-01-29T14:03:11.970Z,6.73
2019-01-29T14:05:40.613Z,8.53
2019-01-29T14:08:09.181Z,6.10
2019-01-29T14:10:37.746Z,4.83
2019-01-29T14:13:06.134Z,4.90
2019-01-29T14:15:48.073Z,6.27
2019-01-29T14:18:17.070Z,5.83
2019-01-29T14:20:45.470Z,4.87
2019-01-29T14:23:13.973Z,4.33
2019-01-29T14:25:42.429Z,3.43
2019-01-29T14:28:11.052Z,5.40
2019-01-29T14:30:39.489Z,4.37
2019-01-29T14:33:08.715Z,5.27
2019-01-29T14:35:37.140Z,4.70
2019-01-29T14:38:11.354Z,5.57
2019-01-29T14:40:40.086Z,4.57
2019-01-29T14:43:11.208Z,5.30
2019-01-29T14:45:39.641Z,6.00
2019-01-29T14:48:08.074Z,7.13
2019-01-29T14:50:36.502Z,5.03
2019-01-29T14:53:05.000Z,4.50
2019-01-29T14:55:33.416Z,7.20
2019-01-29T14:58:01.809Z,6.93
2019-01-29T15:00:39.599Z,7.93
2019-01-29T15:03:07.988Z,5.10
2019-01-29T15:05:36.475Z,7.13
2019-01-29T15:08:05.366Z,3.20
2019-01-29T15:10:33.901Z,4.90
2019-01-29T15:13:02.358Z,3.70
2019-01-29T15:15:37.577Z,6.97
2019-01-29T15:18:13.496Z,5.80
2019-01-29T15:20:41.886Z,7.93
2019-01-29T15:23:10.689Z,7.60
2019-01-29T15:25:39.185Z,8.33
2019-01-29T15:28:07.868Z,8.63
2019-01-29T15:30:36.329Z,4.63
2019-01-29T15:33:04.881Z,5.30
2019-01-29T15:35:33.486Z,6.70
2019-01-29T15:38:01.933Z,7.03
2019-01-29T15:40:30.319Z,5.23
2019-01-29T15:42:58.717Z,6.63
2019-01-29T15:45:33.189Z,5.63
2019-01-29T15:48:01.581Z,3.90
2019-01-29T15:50:31.838Z,9.03
2019-01-29T15:53:00.272Z,6.17
2019-01-29T15:55:28.905Z,5.80
2019-01-29T15:57:57.304Z,5.23
2019-01-29T16:00:31.568Z,4.83
2019-01-29T16:02:59.959Z,8.33
2019-01-29T16:05:33.666Z,10.90
2019-01-29T16:08:02.054Z,5.20
2019-01-29T16:10:39.743Z,4.13
2019-01-29T16:13:06.696Z,4.63
2019-01-29T16:15:35.099Z,4.20
2019-01-29T16:18:03.792Z,6.40
2019-01-29T16:20:32.198Z,5.70
2019-01-29T16:23:00.785Z,6.27
2019-01-29T16:25:34.113Z,9.53
2019-01-29T16:28:02.515Z,6.30
2019-01-29T16:30:33.657Z,6.67
2019-01-29T16:33:02.049Z,5.87
2019-01-29T16:35:32.398Z,7.33
2019-01-29T16:38:00.950Z,5.40
2019-01-29T16:40:35.181Z,6.63
2019-01-29T16:43:03.747Z,4.93
2019-01-29T16:45:34.116Z,6.47
2019-01-29T16:48:03.244Z,9.70
2019-01-29T16:50:31.649Z,5.10
2019-01-29T16:53:00.604Z,7.50
2019-01-29T16:55:29.069Z,7.03
2019-01-29T16:57:57.460Z,5.50
2019-01-29T17:00:31.105Z,6.53
2019-01-29T17:02:59.636Z,10.57
2019-01-29T17:05:29.267Z,7.80
2019-01-29T17:07:58.350Z,7.10
2019-01-29T17:10:29.128Z,10.53
2019-01-29T17:12:57.513Z,7.10
2019-01-29T17:15:31.237Z,6.23
2019-01-29T17:18:00.768Z,6.40
2019-01-29T17:20:43.654Z,7.83
2019-01-29T17:23:12.564Z,7.93
2019-01-29T17:25:41.026Z,8.17
2019-01-29T17:28:09.585Z,7.63
2019-01-29T17:30:45.433Z,5.57
2019-01-29T17:33:16.405Z,5.33
2019-01-29T17:35:44.866Z,5.23
2019-01-29T17:38:13.357Z,5.20
2019-01-29T17:40:42.429Z,6.37
2019-01-29T17:43:10.816Z,6.33
2019-01-29T17:45:45.727Z,8.13
2019-01-29T17:48:14.117Z,7.43
2019-01-29T17:50:44.755Z,6.57
2019-01-29T17:53:13.253Z,9.50
2019-01-29T17:55:42.908Z,9.23
2019-01-29T17:58:12.160Z,8.07
2019-01-29T18:00:42.274Z,6.57
2019-01-29T18:03:10.784Z,7.23
2019-01-29T18:05:39.276Z,8.77
2019-01-29T18:08:07.664Z,6.23
2019-01-29T18:10:36.106Z,7.10
2019-01-29T18:13:04.733Z,11.87
2019-01-29T18:15:33.184Z,7.87
2019-01-29T18:18:01.680Z,6.27
2019-01-29T18:20:30.175Z,8.23
2019-01-29T18:22:58.607Z,6.57
2019-01-29T18:25:27.033Z,7.10
2019-01-29T18:28:01.183Z,9.60
2019-01-29T18:30:34.414Z,7.03
2019-01-29T18:33:02.798Z,7.63
2019-01-29T18:35:31.414Z,9.43
2019-01-29T18:37:59.935Z,10.67
2019-01-29T18:40:34.705Z,8.00
2019-01-29T18:43:03.320Z,9.50
2019-01-29T18:45:32.006Z,13.40
2019-01-29T18:48:00.403Z,10.17
2019-01-29T18:50:28.801Z,9.60
2019-01-29T18:52:57.357Z,12.83
2019-01-29T18:55:25.740Z,13.13
2019-01-29T18:57:54.580Z,6.47
2019-01-29T19:00:25.160Z,7.83
2019-01-29T19:02:53.733Z,9.90
2019-01-29T19:05:24.341Z,10.47
2019-01-29T19:07:52.756Z,7.17
2019-01-29T19:10:22.760Z,6.97
2019-01-29T19:12:51.336Z,7.87
2019-01-29T19:15:22.496Z,9.93
2019-01-29T19:17:51.068Z,8.43
2019-01-29T19:20:26.717Z,11.00
2019-01-29T19:22:55.404Z,9.40
2019-01-29T19:25:24.004Z,7.33
2019-01-29T19:27:52.472Z,9.47
2019-01-29T19:30:23.009Z,7.37
2019-01-29T19:32:51.436Z,6.70
2019-01-29T19:35:19.838Z,14.00
2019-01-29T19:37:48.302Z,9.83
2019-01-29T19:40:18.470Z,8.03
2019-01-29T19:42:46.932Z,8.47
2019-01-29T19:45:20.542Z,10.20
2019-01-29T19:47:48.966Z,10.40
2019-01-29T19:50:31.670Z,10.50
2019-01-29T19:53:00.354Z,12.20
2019-01-29T19:55:28.926Z,8.77
2019-01-29T19:58:07.993Z,12.17
2019-01-29T20:00:33.932Z,10.87
2019-01-29T20:03:02.473Z,11.50
2019-01-29T20:05:31.021Z,11.17
2019-01-29T20:07:59.448Z,8.33
2019-01-29T20:10:27.959Z,11.10
2019-01-29T20:12:56.345Z,10.10
2019-01-29T20:15:25.976Z,7.97
2019-01-29T20:17:59.135Z,10.60
2019-01-29T20:20:33.112Z,8.17
2019-01-29T20:23:07.755Z,8.93
2019-01-29T20:25:31.874Z,9.13
2019-01-29T20:28:00.273Z,9.03
2019-01-29T20:30:31.612Z,9.67
2019-01-29T20:33:00.037Z,6.13
2019-01-29T20:35:28.440Z,7.07
2019-01-29T20:37:57.011Z,9.37
2019-01-29T20:40:25.912Z,6.70
2019-01-29T20:42:54.317Z,6.90
2019-01-29T20:45:22.991Z,6.37
2019-01-29T20:47:52.723Z,9.50
2019-01-29T20:50:24.122Z,6.80
2019-01-29T20:52:52.554Z,5.90
2019-01-29T20:55:21.014Z,5.87
2019-01-29T20:57:49.489Z,5.40
2019-01-29T21:00:20.677Z,7.47
2019-01-29T21:02:49.249Z,6.53
2019-01-29T21:05:17.890Z,5.83
2019-01-29T21:07:46.277Z,6.10
2019-01-29T21:10:17.348Z,8.33
2019-01-29T21:12:45.909Z,7.57
2019-01-29T21:15:17.215Z,9.07
2019-01-29T21:17:45.841Z,7.43
2019-01-29T21:20:17.201Z,7.47
2019-01-29T21:22:45.698Z,7.17
2019-01-29T21:25:14.476Z,8.13
2019-01-29T21:27:42.865Z,6.63
2019-01-29T21:30:22.817Z,7.77
2019-01-29T21:32:51.205Z,8.10
2019-01-29T21:35:19.610Z,8.63
2019-01-29T21:37:48.062Z,15.53
2019-01-29T21:40:17.703Z,7.40
2019-01-29T21:42:46.250Z,6.80
2019-01-29T21:45:19.681Z,8.90
2019-01-29T21:47:48.809Z,10.00
2019-01-29T21:50:19.841Z,14.10
2019-01-29T21:52:48.242Z,8.97
2019-01-29T21:55:16.955Z,7.60
2019-01-29T21:57:45.481Z,9.73
2019-01-29T22:00:28.778Z,9.30
2019-01-29T22:02:57.209Z,8.73
2019-01-29T22:05:25.605Z,9.50
2019-01-29T22:07:54.007Z,11.73
2019-01-29T22:10:22.431Z,11.57
2019-01-29T22:12:50.908Z,9.87
2019-01-29T22:15:21.509Z,9.33
2019-01-29T22:17:49.946Z,10.27
2019-01-29T22:20:20.073Z,11.13
2019-01-29T22:22:48.472Z,8.17
2019-01-29T22:25:19.005Z,10.23
2019-01-29T22:27:47.404Z,9.63
2019-01-29T22:30:41.228Z,9.63
2019-01-29T22:33:09.622Z,9.83
2019-01-29T22:35:38.042Z,8.97
2019-01-29T22:38:06.586Z,9.33
2019-01-29T22:40:34.985Z,10.77
2019-01-29T22:43:03.549Z,10.27
2019-01-29T22:45:31.973Z,7.63
2019-01-29T22:48:00.365Z,8.87
2019-01-29T22:50:40.097Z,8.63
2019-01-29T22:53:08.861Z,10.13
2019-01-29T22:55:37.276Z,9.73
2019-01-29T22:58:06.516Z,10.30
2019-01-29T23:00:52.227Z,11.33
2019-01-29T23:03:29.621Z,7.10
2019-01-29T23:06:18.288Z,9.13
2019-01-29T23:08:46.769Z,9.07
2019-01-29T23:11:15.204Z,9.43
2019-01-29T23:13:43.709Z,10.90
2019-01-29T23:16:12.109Z,10.60
2019-01-29T23:18:40.509Z,10.00
2019-01-29T23:21:08.941Z,11.43
2019-01-29T23:23:37.333Z,10.67
2019-01-29T23:26:05.729Z,10.30
2019-01-29T23:28:34.411Z,9.13
2019-01-29T23:31:02.880Z,8.43
2019-01-29T23:33:31.269Z,7.50
2019-01-29T23:35:59.960Z,6.50
2019-01-29T23:38:28.422Z,9.20
2019-01-29T23:40:56.902Z,6.47
2019-01-29T23:43:25.794Z,8.53
2019-01-29T23:45:54.179Z,6.30
2019-01-29T23:48:22.565Z,7.00
2019-01-29T23:50:50.997Z,7.33
2019-01-29T23:53:19.437Z,7.60
2019-01-29T23:55:47.829Z,7.27
2019-01-29T23:58:16.249Z,7.33
